createdAt,value
2023-03-28T00:01:15.195Z,88.77
2023-03-28T00:03:43.901Z,88.44
2023-03-28T00:06:16.662Z,89.22
2023-03-28T00:08:48.055Z,89.10
2023-03-28T00:11:20.558Z,89.12
2023-03-28T00:13:53.657Z,89.13
2023-03-28T00:16:22.480Z,89.47
2023-03-28T00:18:51.223Z,89.58
2023-03-28T00:21:24.664Z,89.01
2023-03-28T00:23:57.352Z,89.11
2023-03-28T00:26:27.752Z,89.22
2023-03-28T00:28:57.738Z,89.16
2023-03-28T00:31:27.685Z,89.42
2023-03-28T00:33:57.592Z,88.97
2023-03-28T00:36:29.766Z,89.35
2023-03-28T00:39:02.168Z,89.23
2023-03-28T00:41:33.897Z,89.29
2023-03-28T00:44:04.133Z,89.04
2023-03-28T00:46:37.578Z,89.29
2023-03-28T00:49:13.436Z,89.63
2023-03-28T00:51:46.293Z,89.46
2023-03-28T00:54:20.062Z,89.37
2023-03-28T00:56:55.852Z,89.62
2023-03-28T00:59:29.484Z,89.48
2023-03-28T01:01:58.305Z,89.27
2023-03-28T01:04:36.409Z,89.43
2023-03-28T01:07:07.107Z,89.42
2023-03-28T01:09:40.052Z,89.60
2023-03-28T01:12:10.533Z,89.61
2023-03-28T01:14:40.475Z,89.97
2023-03-28T01:17:10.970Z,89.96
2023-03-28T01:20:00.924Z,89.79
2023-03-28T01:23:25.910Z,89.45
2023-03-28T01:26:46.486Z,89.56
2023-03-28T01:30:13.156Z,89.70
2023-03-28T01:33:47.843Z,89.81
2023-03-28T01:37:21.568Z,89.50
2023-03-28T01:40:21.284Z,89.68
2023-03-28T01:43:13.528Z,90.00
2023-03-28T01:45:55.952Z,89.87
2023-03-28T01:48:40.040Z,89.59
2023-03-28T01:51:22.167Z,89.63
2023-03-28T01:54:02.855Z,89.64
2023-03-28T01:56:39.050Z,89.94
2023-03-28T01:59:18.756Z,89.93
2023-03-28T02:02:30.147Z,89.93
2023-03-28T02:05:10.669Z,90.05
2023-03-28T02:07:48.328Z,89.82
2023-03-28T02:10:25.112Z,89.71
2023-03-28T02:13:10.944Z,89.93
2023-03-28T02:15:53.658Z,90.27
2023-03-28T02:19:01.946Z,90.53
2023-03-28T02:21:41.359Z,90.68
2023-03-28T02:24:36.491Z,90.77
2023-03-28T02:27:18.479Z,90.55
2023-03-28T02:29:55.624Z,90.34
2023-03-28T02:32:36.298Z,90.65
2023-03-28T02:35:09.215Z,90.55
2023-03-28T02:37:54.318Z,90.50
2023-03-28T02:40:45.327Z,90.46
2023-03-28T02:43:46.119Z,90.24
2023-03-28T02:46:24.006Z,90.47
2023-03-28T02:49:49.238Z,90.39
2023-03-28T02:52:35.393Z,90.63
2023-03-28T02:55:17.752Z,90.51
2023-03-28T02:58:24.045Z,90.68
2023-03-28T03:00:52.779Z,91.09
2023-03-28T03:03:21.952Z,90.76
2023-03-28T03:05:50.922Z,90.71
2023-03-28T03:08:19.664Z,90.98
2023-03-28T03:10:48.675Z,90.64
2023-03-28T03:13:18.164Z,90.82
2023-03-28T03:15:48.268Z,90.93
2023-03-28T03:18:26.394Z,91.02
2023-03-28T03:20:55.613Z,90.89
2023-03-28T03:23:24.366Z,91.50
2023-03-28T03:25:56.547Z,91.74
2023-03-28T03:28:33.818Z,91.70
2023-03-28T03:31:07.365Z,91.01
2023-03-28T03:33:54.984Z,91.16
2023-03-28T03:36:30.458Z,91.50
2023-03-28T03:39:00.726Z,91.56
2023-03-28T03:41:29.469Z,91.46
2023-03-28T03:43:58.140Z,91.08
2023-03-28T03:46:28.196Z,90.59
2023-03-28T03:48:57.146Z,90.53
2023-03-28T03:51:26.876Z,90.62
2023-03-28T03:53:59.484Z,90.44
2023-03-28T03:56:39.931Z,90.37
2023-03-28T03:59:08.607Z,90.58
2023-03-28T04:01:41.676Z,90.20
2023-03-28T04:04:48.967Z,90.26
2023-03-28T04:07:32.984Z,90.32
2023-03-28T04:10:01.952Z,90.25
2023-03-28T04:12:36.207Z,89.94
2023-03-28T04:15:06.173Z,89.78
2023-03-28T04:17:57.379Z,89.52
2023-03-28T04:20:31.832Z,89.50
2023-03-28T04:23:08.533Z,89.28
2023-03-28T04:25:41.602Z,89.21
2023-03-28T04:28:21.233Z,89.36
2023-03-28T04:30:59.405Z,89.26
2023-03-28T04:34:00.502Z,89.12
2023-03-28T04:36:34.195Z,89.11
2023-03-28T04:39:05.642Z,88.93
2023-03-28T04:41:57.449Z,88.78
2023-03-28T04:44:36.089Z,88.67
2023-03-28T04:47:08.683Z,88.62
2023-03-28T04:49:39.494Z,88.95
2023-03-28T04:52:08.737Z,89.03
2023-03-28T04:54:37.540Z,88.73
2023-03-28T04:57:08.865Z,88.81
2023-03-28T04:59:44.672Z,88.52
2023-03-28T05:02:21.408Z,88.31
2023-03-28T05:05:02.722Z,88.27
2023-03-28T05:07:31.675Z,87.97
2023-03-28T05:10:00.476Z,87.65
2023-03-28T05:12:36.020Z,87.75
2023-03-28T05:15:08.335Z,87.80
2023-03-28T05:18:06.795Z,87.60
2023-03-28T05:20:39.412Z,87.35
2023-03-28T05:23:09.001Z,87.12
2023-03-28T05:25:41.434Z,87.12
2023-03-28T05:28:10.964Z,87.04
2023-03-28T05:30:49.378Z,87.40
2023-03-28T05:33:18.366Z,87.36
2023-03-28T05:35:49.574Z,86.94
2023-03-28T05:38:18.490Z,86.77
2023-03-28T05:40:52.715Z,86.72
2023-03-28T05:43:21.506Z,86.65
2023-03-28T05:45:50.590Z,86.82
2023-03-28T05:48:22.169Z,86.73
2023-03-28T05:50:52.395Z,86.95
2023-03-28T05:53:21.502Z,86.73
2023-03-28T05:55:51.859Z,86.53
2023-03-28T05:58:20.718Z,86.49
2023-03-28T06:00:49.714Z,86.53
2023-03-28T06:03:19.087Z,86.56
2023-03-28T06:05:49.434Z,86.37
2023-03-28T06:08:29.455Z,86.49
2023-03-28T06:11:02.543Z,86.53
2023-03-28T06:13:37.414Z,86.62
2023-03-28T06:16:10.610Z,86.40
2023-03-28T06:18:39.288Z,86.11
2023-03-28T06:21:08.634Z,86.50
2023-03-28T06:23:39.596Z,86.44
2023-03-28T06:26:18.431Z,86.29
2023-03-28T06:28:47.778Z,86.21
2023-03-28T06:31:20.934Z,86.08
2023-03-28T06:33:50.506Z,86.00
2023-03-28T06:36:23.346Z,85.73
2023-03-28T06:38:55.023Z,86.08
2023-03-28T06:41:27.697Z,85.46
2023-03-28T06:43:56.626Z,85.46
2023-03-28T06:46:43.822Z,85.74
2023-03-28T06:49:14.585Z,85.75
2023-03-28T06:52:22.722Z,85.41
2023-03-28T06:54:54.303Z,85.15
2023-03-28T06:57:23.115Z,85.15
2023-03-28T06:59:55.415Z,85.15
2023-03-28T07:02:32.530Z,84.38
2023-03-28T07:05:07.879Z,83.93
2023-03-28T07:07:36.680Z,83.92
2023-03-28T07:10:09.430Z,84.39
2023-03-28T07:12:39.342Z,84.60
2023-03-28T07:15:10.442Z,84.34
2023-03-28T07:17:40.786Z,83.13
2023-03-28T07:20:10.646Z,83.65
2023-03-28T07:22:39.971Z,83.20
2023-03-28T07:25:14.021Z,82.74
2023-03-28T07:27:44.825Z,82.18
2023-03-28T07:30:17.572Z,82.12
2023-03-28T07:32:56.752Z,80.11
2023-03-28T07:35:32.746Z,81.41
2023-03-28T07:38:05.635Z,81.98
2023-03-28T07:40:39.274Z,80.61
2023-03-28T07:43:08.216Z,80.79
2023-03-28T07:45:37.359Z,80.42
2023-03-28T07:48:06.868Z,81.39
2023-03-28T07:50:36.946Z,80.49
2023-03-28T07:53:05.732Z,81.78
2023-03-28T07:58:12.643Z,79.63
2023-03-28T08:00:45.595Z,81.10
2023-03-28T08:03:40.880Z,81.41
2023-03-28T08:06:28.783Z,81.29
2023-03-28T08:09:00.220Z,80.77
2023-03-28T08:11:43.657Z,80.54
2023-03-28T08:14:15.542Z,78.60
2023-03-28T08:16:46.290Z,79.60
2023-03-28T08:19:15.437Z,78.91
2023-03-28T08:22:03.549Z,79.28
2023-03-28T08:24:38.764Z,79.85
2023-03-28T08:27:14.203Z,78.98
2023-03-28T08:29:46.058Z,79.54
2023-03-28T08:32:15.775Z,78.99
2023-03-28T08:34:44.331Z,80.10
2023-03-28T08:37:16.885Z,79.91
2023-03-28T08:39:51.038Z,79.33
2023-03-28T08:42:58.377Z,79.33
2023-03-28T08:45:40.962Z,78.76
2023-03-28T08:48:20.957Z,79.06
2023-03-28T08:50:55.402Z,77.60
2023-03-28T08:53:34.472Z,79.08
2023-03-28T08:56:07.834Z,78.38
2023-03-28T08:58:50.254Z,80.06
2023-03-28T09:01:22.564Z,78.59
2023-03-28T09:03:52.361Z,79.01
2023-03-28T09:06:32.209Z,78.53
2023-03-28T09:09:45.565Z,78.61
2023-03-28T09:12:41.288Z,77.75
2023-03-28T09:15:31.741Z,77.11
2023-03-28T09:18:32.281Z,78.79
2023-03-28T09:21:10.002Z,79.38
2023-03-28T09:24:11.756Z,79.08
2023-03-28T09:27:07.833Z,79.47
2023-03-28T09:29:45.385Z,79.37
2023-03-28T09:32:28.092Z,78.42
2023-03-28T09:34:59.053Z,77.06
2023-03-28T09:37:38.292Z,76.77
2023-03-28T09:40:21.810Z,75.67
2023-03-28T09:43:22.307Z,77.85
2023-03-28T09:46:09.475Z,74.57
2023-03-28T09:48:41.297Z,75.32
2023-03-28T09:51:19.387Z,75.47
2023-03-28T09:53:49.188Z,78.74
2023-03-28T09:56:28.240Z,75.56
2023-03-28T09:59:06.069Z,72.77
2023-03-28T10:01:51.001Z,73.18
2023-03-28T10:04:33.983Z,73.79
2023-03-28T10:07:34.594Z,73.27
2023-03-28T10:10:23.729Z,73.79
2023-03-28T10:13:06.257Z,73.11
2023-03-28T10:15:46.478Z,72.05
2023-03-28T10:18:23.669Z,73.26
2023-03-28T10:21:16.166Z,74.57
2023-03-28T10:23:56.634Z,73.26
2023-03-28T10:26:28.092Z,73.93
2023-03-28T10:29:05.080Z,74.38
2023-03-28T10:31:36.526Z,74.69
2023-03-28T10:34:28.073Z,74.66
2023-03-28T10:37:04.744Z,74.42
2023-03-28T10:40:01.666Z,74.97
2023-03-28T10:42:59.834Z,73.15
2023-03-28T10:45:56.198Z,71.95
2023-03-28T10:48:37.974Z,72.88
2023-03-28T10:51:22.244Z,74.06
2023-03-28T10:54:17.723Z,72.12
2023-03-28T10:56:53.786Z,70.45
2023-03-28T10:59:47.953Z,75.04
2023-03-28T11:02:49.749Z,75.17
2023-03-28T11:05:36.260Z,72.39
2023-03-28T11:08:34.460Z,71.10
2023-03-28T11:11:31.407Z,70.94
2023-03-28T11:14:17.124Z,70.66
2023-03-28T11:17:01.872Z,71.60
2023-03-28T11:20:25.040Z,74.15
2023-03-28T11:23:27.717Z,72.94
2023-03-28T11:26:22.438Z,70.89
2023-03-28T11:29:44.185Z,70.56
2023-03-28T11:32:25.278Z,71.83
2023-03-28T11:35:18.046Z,70.53
2023-03-28T11:38:02.467Z,71.14
2023-03-28T11:40:46.859Z,70.93
2023-03-28T11:43:30.733Z,70.86
2023-03-28T11:46:09.201Z,70.71
2023-03-28T11:48:46.489Z,70.87
2023-03-28T11:51:30.613Z,70.07
2023-03-28T11:54:09.026Z,71.08
2023-03-28T11:56:53.859Z,69.36
2023-03-28T11:59:42.088Z,71.09
2023-03-28T12:02:30.839Z,73.17
2023-03-28T12:05:10.072Z,69.87
2023-03-28T12:07:47.114Z,72.05
2023-03-28T12:10:36.778Z,69.24
2023-03-28T12:13:45.949Z,69.31
2023-03-28T12:16:28.883Z,69.44
2023-03-28T12:19:01.828Z,69.48
2023-03-28T12:22:04.642Z,69.53
2023-03-28T12:24:50.178Z,70.06
2023-03-28T12:27:42.976Z,70.55
2023-03-28T12:30:26.885Z,70.68
2023-03-28T12:33:20.538Z,71.11
2023-03-28T12:36:17.896Z,72.72
2023-03-28T12:39:00.373Z,74.00
2023-03-28T12:41:40.352Z,74.64
2023-03-28T12:44:23.117Z,74.26
2023-03-28T12:47:00.309Z,74.87
2023-03-28T12:49:45.561Z,73.74
2023-03-28T12:52:23.107Z,73.49
2023-03-28T12:55:01.897Z,73.98
2023-03-28T12:57:51.240Z,74.10
2023-03-28T13:00:51.477Z,74.72
2023-03-28T13:04:11.913Z,73.82
2023-03-28T13:07:08.180Z,73.73
2023-03-28T13:09:57.208Z,75.04
2023-03-28T13:12:40.677Z,76.13
2023-03-28T13:15:29.751Z,76.65
2023-03-28T13:18:31.604Z,77.56
2023-03-28T13:21:04.260Z,76.86
2023-03-28T13:23:49.376Z,77.48
2023-03-28T13:26:17.969Z,78.07
2023-03-28T13:28:51.672Z,79.24
2023-03-28T13:31:24.492Z,80.07
2023-03-28T13:34:01.748Z,81.50
2023-03-28T13:36:33.801Z,81.89
2023-03-28T13:39:26.207Z,82.44
2023-03-28T13:42:01.521Z,82.99
2023-03-28T13:44:46.129Z,83.19
2023-03-28T13:47:31.821Z,83.65
2023-03-28T13:50:09.563Z,84.11
2023-03-28T13:52:39.615Z,84.68
2023-03-28T13:55:24.306Z,84.95
2023-03-28T13:57:53.755Z,85.30
2023-03-28T14:00:27.068Z,85.76
2023-03-28T14:03:04.420Z,86.19
2023-03-28T14:05:36.328Z,87.00
2023-03-28T14:08:25.445Z,87.59
2023-03-28T14:11:02.490Z,88.04
2023-03-28T14:13:32.207Z,88.01
2023-03-28T14:16:16.062Z,88.26
2023-03-28T14:18:50.032Z,88.25
2023-03-28T14:21:19.150Z,88.22
2023-03-28T14:23:58.925Z,88.59
2023-03-28T14:26:35.149Z,88.67
2023-03-28T14:29:08.326Z,89.26
2023-03-28T14:31:40.457Z,89.46
2023-03-28T14:34:25.135Z,89.29
2023-03-28T14:37:03.779Z,90.01
2023-03-28T14:39:41.208Z,89.69
2023-03-28T14:42:20.135Z,89.53
2023-03-28T14:44:55.388Z,89.74
2023-03-28T14:47:30.345Z,89.81
2023-03-28T14:50:03.819Z,89.58
2023-03-28T14:52:37.275Z,89.94
2023-03-28T14:55:08.799Z,89.56
2023-03-28T14:57:43.202Z,89.59
2023-03-28T15:00:22.227Z,89.68
2023-03-28T15:02:53.575Z,89.49
2023-03-28T15:05:24.337Z,89.74
2023-03-28T15:08:01.447Z,89.88
2023-03-28T15:10:31.725Z,90.10
2023-03-28T15:13:10.363Z,89.91
2023-03-28T15:15:46.103Z,89.97
2023-03-28T15:18:19.269Z,90.26
2023-03-28T15:20:54.750Z,90.18
2023-03-28T15:23:29.570Z,90.13
2023-03-28T15:26:09.314Z,90.19
2023-03-28T15:28:41.098Z,90.68
2023-03-28T15:31:15.163Z,90.73
2023-03-28T15:33:48.530Z,91.04
2023-03-28T15:36:20.581Z,90.98
2023-03-28T15:39:02.358Z,91.21
2023-03-28T15:41:49.631Z,91.12
2023-03-28T15:44:35.942Z,91.34
2023-03-28T15:47:08.489Z,91.21
2023-03-28T15:49:39.448Z,91.22
2023-03-28T15:52:19.044Z,91.36
2023-03-28T15:54:53.324Z,91.63
2023-03-28T15:57:29.054Z,91.79
2023-03-28T16:00:01.033Z,91.80
2023-03-28T16:02:39.679Z,92.01
2023-03-28T16:05:37.965Z,91.86
2023-03-28T16:08:25.080Z,91.67
2023-03-28T16:10:54.570Z,91.77
2023-03-28T16:14:03.192Z,91.76
2023-03-28T16:17:07.638Z,91.76
2023-03-28T16:19:53.833Z,91.67
2023-03-28T16:22:22.911Z,92.09
2023-03-28T16:24:52.622Z,92.01
2023-03-28T16:27:35.994Z,92.04
2023-03-28T16:30:29.919Z,91.83
2023-03-28T16:33:01.498Z,91.58
2023-03-28T16:35:32.424Z,91.65
2023-03-28T16:38:05.461Z,91.63
2023-03-28T16:40:37.709Z,91.50
2023-03-28T16:43:08.005Z,91.46
2023-03-28T16:45:39.219Z,91.59
2023-03-28T16:48:09.474Z,91.96
2023-03-28T16:50:40.377Z,92.14
2023-03-28T16:53:09.279Z,91.92
2023-03-28T16:55:38.801Z,92.26
2023-03-28T16:58:21.345Z,92.14
2023-03-28T17:00:55.312Z,92.15
2023-03-28T17:03:30.559Z,92.27
2023-03-28T17:06:04.346Z,92.21
2023-03-28T17:08:34.717Z,92.22
2023-03-28T17:11:13.101Z,92.18
2023-03-28T17:13:47.599Z,92.35
2023-03-28T17:16:16.722Z,92.35
2023-03-28T17:18:48.094Z,92.22
2023-03-28T17:21:19.729Z,92.37
2023-03-28T17:23:51.238Z,92.26
2023-03-28T17:26:22.816Z,92.65
2023-03-28T17:29:03.109Z,92.89
2023-03-28T17:31:41.050Z,92.85
2023-03-28T17:34:41.637Z,92.72
2023-03-28T17:37:20.564Z,92.57
2023-03-28T17:39:51.323Z,92.70
2023-03-28T17:42:30.799Z,92.77
2023-03-28T17:45:07.572Z,92.73
2023-03-28T17:47:43.478Z,92.46
2023-03-28T17:50:18.207Z,92.67
2023-03-28T17:52:53.463Z,92.95
2023-03-28T17:55:26.009Z,92.77
2023-03-28T17:57:56.913Z,92.95
2023-03-28T18:00:30.262Z,92.66
2023-03-28T18:03:01.087Z,92.63
2023-03-28T18:06:00.277Z,92.63
2023-03-28T18:08:31.821Z,92.99
2023-03-28T18:11:09.710Z,93.50
2023-03-28T18:13:41.392Z,93.29
2023-03-28T18:16:21.886Z,93.33
2023-03-28T18:18:54.525Z,93.23
2023-03-28T18:21:27.144Z,93.32
2023-03-28T18:24:00.321Z,93.51
2023-03-28T18:26:29.711Z,93.31
2023-03-28T18:28:58.436Z,93.55
2023-03-28T18:31:28.398Z,93.69
2023-03-28T18:33:59.144Z,93.64
2023-03-28T18:36:29.761Z,93.62
2023-03-28T18:38:58.906Z,93.63
2023-03-28T18:41:29.913Z,93.77
2023-03-28T18:43:59.631Z,93.69
2023-03-28T18:46:30.070Z,93.62
2023-03-28T18:49:00.343Z,93.85
2023-03-28T18:51:30.464Z,93.78
2023-03-28T18:54:00.311Z,93.58
2023-03-28T18:56:29.264Z,93.83
2023-03-28T18:58:58.433Z,93.64
2023-03-28T19:01:27.233Z,93.57
2023-03-28T19:03:56.760Z,93.80
2023-03-28T19:06:25.533Z,94.00
2023-03-28T19:08:55.633Z,94.03
2023-03-28T19:11:24.835Z,93.85
2023-03-28T19:13:54.818Z,93.98
2023-03-28T19:16:23.511Z,93.85
2023-03-28T19:18:52.269Z,93.69
2023-03-28T19:21:22.141Z,93.78
2023-03-28T19:23:51.787Z,93.63
2023-03-28T19:26:22.351Z,93.70
2023-03-28T19:28:51.560Z,93.83
2023-03-28T19:31:21.902Z,93.69
2023-03-28T19:33:51.051Z,93.74
2023-03-28T19:36:20.475Z,93.91
2023-03-28T19:38:49.167Z,93.74
2023-03-28T19:41:22.216Z,93.73
2023-03-28T19:43:51.306Z,93.88
2023-03-28T19:46:27.975Z,93.75
2023-03-28T19:49:00.752Z,93.77
2023-03-28T19:51:30.002Z,93.52
2023-03-28T19:53:58.738Z,93.43
2023-03-28T19:56:28.962Z,93.58
2023-03-28T19:58:57.717Z,93.66
2023-03-28T20:01:26.412Z,93.61
2023-03-28T20:03:55.549Z,93.47
2023-03-28T20:06:25.080Z,93.51
2023-03-28T20:08:53.965Z,93.42
2023-03-28T20:11:22.883Z,93.54
2023-03-28T20:13:52.868Z,93.44
2023-03-28T20:16:21.583Z,93.77
2023-03-28T20:18:50.223Z,93.75
2023-03-28T20:21:19.193Z,93.85
2023-03-28T20:23:47.842Z,93.64
2023-03-28T20:26:19.470Z,93.70
2023-03-28T20:28:50.572Z,93.72
2023-03-28T20:31:20.845Z,93.82
2023-03-28T20:33:49.504Z,93.61
2023-03-28T20:36:18.174Z,93.52
2023-03-28T20:38:49.030Z,93.94
2023-03-28T20:41:20.117Z,93.77
2023-03-28T20:43:54.274Z,93.75
2023-03-28T20:46:25.302Z,93.68
2023-03-28T20:48:56.842Z,93.62
2023-03-28T20:51:29.659Z,94.12
2023-03-28T20:54:00.817Z,93.75
2023-03-28T20:56:33.986Z,93.68
2023-03-28T20:59:04.464Z,93.91
2023-03-28T21:01:39.549Z,93.92
2023-03-28T21:04:08.769Z,93.64
2023-03-28T21:06:39.704Z,93.91
2023-03-28T21:09:12.336Z,93.80
2023-03-28T21:11:41.386Z,93.42
2023-03-28T21:14:13.513Z,93.85
2023-03-28T21:16:43.948Z,94.05
2023-03-28T21:19:12.730Z,94.04
2023-03-28T21:21:41.638Z,94.03
2023-03-28T21:24:10.544Z,93.87
2023-03-28T21:26:39.412Z,94.03
2023-03-28T21:29:09.500Z,94.08
2023-03-28T21:31:38.350Z,93.81
2023-03-28T21:34:08.516Z,93.95
2023-03-28T21:36:37.231Z,93.86
2023-03-28T21:39:05.957Z,93.80
2023-03-28T21:41:37.104Z,93.78
2023-03-28T21:44:06.149Z,93.81
2023-03-28T21:46:34.863Z,93.78
2023-03-28T21:49:03.645Z,93.60
2023-03-28T21:51:33.867Z,93.47
2023-03-28T21:54:02.663Z,93.73
2023-03-28T21:56:31.822Z,93.42
2023-03-28T21:59:00.552Z,93.47
2023-03-28T22:01:29.204Z,93.59
2023-03-28T22:03:57.898Z,93.41
2023-03-28T22:06:26.625Z,93.96
2023-03-28T22:08:56.966Z,93.68
2023-03-28T22:11:30.121Z,93.65
2023-03-28T22:14:02.726Z,93.78
2023-03-28T22:16:34.649Z,93.82
2023-03-28T22:19:03.562Z,93.66
2023-03-28T22:21:32.466Z,93.65
2023-03-28T22:24:04.420Z,93.55
2023-03-28T22:26:33.121Z,93.52
2023-03-28T22:29:01.718Z,93.46
2023-03-28T22:31:30.781Z,93.68
2023-03-28T22:33:59.443Z,93.67
2023-03-28T22:36:28.229Z,93.79
2023-03-28T22:38:57.053Z,93.88
2023-03-28T22:41:32.011Z,93.76
2023-03-28T22:44:00.948Z,93.82
2023-03-28T22:46:30.070Z,93.72
2023-03-28T22:49:00.661Z,93.93
2023-03-28T22:51:29.883Z,94.03
2023-03-28T22:54:01.911Z,94.16
2023-03-28T22:56:32.107Z,93.94
2023-03-28T22:59:02.071Z,94.00
2023-03-28T23:01:30.851Z,93.77
2023-03-28T23:03:59.560Z,93.74
2023-03-28T23:06:28.936Z,93.65
2023-03-28T23:08:58.690Z,93.73
2023-03-28T23:11:27.842Z,93.83
2023-03-28T23:13:57.871Z,93.64
2023-03-28T23:16:26.535Z,93.81
2023-03-28T23:18:55.379Z,93.81
2023-03-28T23:21:24.550Z,93.64
2023-03-28T23:23:54.275Z,93.57
2023-03-28T23:26:22.961Z,93.53
2023-03-28T23:28:54.583Z,93.48
2023-03-28T23:31:24.638Z,93.65
2023-03-28T23:33:53.352Z,93.51
2023-03-28T23:36:21.977Z,93.38
2023-03-28T23:38:51.153Z,93.15
2023-03-28T23:41:20.005Z,92.95
2023-03-28T23:43:48.632Z,93.28
2023-03-28T23:46:17.397Z,93.08
2023-03-28T23:48:47.517Z,93.18
2023-03-28T23:51:16.159Z,93.12
2023-03-28T23:53:44.698Z,93.11
2023-03-28T23:56:13.519Z,92.96
2023-03-28T23:58:42.830Z,92.98
